createdAt,value
2018-12-02T00:02:15.515Z,10.70
2018-12-02T00:04:43.482Z,10.70
2018-12-02T00:07:11.445Z,10.70
2018-12-02T00:09:39.420Z,10.70
2018-12-02T00:12:07.359Z,10.70
2018-12-02T00:14:35.285Z,10.70
2018-12-02T00:17:03.241Z,10.70
2018-12-02T00:19:31.289Z,10.80
2018-12-02T00:21:59.206Z,10.80
2018-12-02T00:24:27.166Z,10.80
2018-12-02T00:26:55.137Z,10.80
2018-12-02T00:29:23.072Z,10.90
2018-12-02T00:31:51.002Z,10.80
2018-12-02T00:34:18.966Z,10.80
2018-12-02T00:36:46.912Z,10.80
2018-12-02T00:39:14.908Z,10.80
2018-12-02T00:41:42.870Z,10.80
2018-12-02T00:44:10.870Z,10.80
2018-12-02T00:46:38.842Z,10.80
2018-12-02T00:49:06.847Z,10.80
2018-12-02T00:51:34.801Z,10.80
2018-12-02T00:54:02.756Z,10.80
2018-12-02T00:56:33.700Z,10.80
2018-12-02T00:59:01.894Z,10.80
2018-12-02T01:01:29.819Z,10.90
2018-12-02T01:03:57.770Z,10.80
2018-12-02T01:06:25.719Z,10.80
2018-12-02T01:08:53.642Z,10.80
2018-12-02T01:11:21.642Z,10.80
2018-12-02T01:13:49.591Z,10.80
2018-12-02T01:16:17.544Z,10.80
2018-12-02T01:18:45.534Z,10.80
2018-12-02T01:21:13.484Z,10.90
2018-12-02T01:23:41.431Z,10.80
2018-12-02T01:26:09.389Z,10.90
2018-12-02T01:28:37.367Z,10.90
2018-12-02T01:31:05.775Z,10.90
2018-12-02T01:33:33.738Z,10.90
2018-12-02T01:36:01.670Z,10.90
2018-12-02T01:38:29.616Z,10.90
2018-12-02T01:40:57.526Z,10.90
2018-12-02T01:43:25.462Z,10.90
2018-12-02T01:45:53.407Z,11.00
2018-12-02T01:48:21.367Z,10.90
2018-12-02T01:50:49.344Z,10.90
2018-12-02T01:53:17.271Z,10.90
2018-12-02T01:55:45.221Z,10.90
2018-12-02T01:58:13.193Z,10.90
2018-12-02T02:00:41.165Z,10.90
2018-12-02T02:03:09.162Z,11.00
2018-12-02T02:05:37.127Z,11.00
2018-12-02T02:08:05.548Z,11.00
2018-12-02T02:10:33.573Z,11.00
2018-12-02T02:13:01.500Z,11.00
2018-12-02T02:15:29.459Z,10.90
2018-12-02T02:17:57.451Z,11.00
2018-12-02T02:20:25.580Z,11.00
2018-12-02T02:22:53.505Z,11.00
2018-12-02T02:25:22.559Z,11.00
2018-12-02T02:27:52.504Z,11.00
2018-12-02T02:30:22.592Z,11.00
2018-12-02T02:32:50.537Z,11.00
2018-12-02T02:35:19.492Z,11.00
2018-12-02T02:37:47.795Z,11.00
2018-12-02T02:40:16.820Z,11.00
2018-12-02T02:42:44.741Z,11.00
2018-12-02T02:45:13.202Z,11.00
2018-12-02T02:47:41.145Z,11.00
2018-12-02T02:50:13.558Z,11.00
2018-12-02T02:52:42.437Z,11.10
2018-12-02T02:55:10.382Z,11.00
2018-12-02T02:57:38.341Z,11.10
2018-12-02T03:00:22.147Z,11.10
2018-12-02T03:02:50.135Z,11.10
2018-12-02T03:05:18.317Z,11.10
2018-12-02T03:07:46.322Z,11.10
2018-12-02T03:10:16.174Z,11.10
2018-12-02T03:12:46.171Z,11.10
2018-12-02T03:15:15.113Z,11.20
2018-12-02T03:17:43.423Z,11.20
2018-12-02T03:20:13.237Z,11.20
2018-12-02T03:22:42.020Z,11.20
2018-12-02T03:25:11.086Z,11.20
2018-12-02T03:27:39.050Z,11.30
2018-12-02T03:30:10.723Z,11.30
2018-12-02T03:32:38.864Z,11.30
2018-12-02T03:35:07.938Z,11.30
2018-12-02T03:37:35.842Z,11.30
2018-12-02T03:40:06.647Z,11.30
2018-12-02T03:42:34.581Z,11.30
2018-12-02T03:45:02.568Z,11.30
2018-12-02T03:47:30.516Z,11.40
2018-12-02T03:49:58.697Z,11.40
2018-12-02T03:52:26.630Z,11.40
2018-12-02T03:54:54.553Z,11.40
2018-12-02T03:57:22.474Z,11.40
2018-12-02T03:59:50.427Z,11.40
2018-12-02T04:02:18.381Z,11.40
2018-12-02T04:04:46.303Z,11.40
2018-12-02T04:07:14.215Z,11.40
2018-12-02T04:09:42.223Z,11.40
2018-12-02T04:12:10.165Z,11.50
2018-12-02T04:14:38.215Z,11.50
2018-12-02T04:17:06.310Z,11.60
2018-12-02T04:19:34.232Z,11.60
2018-12-02T04:22:02.144Z,11.60
2018-12-02T04:24:30.071Z,11.50
2018-12-02T04:26:57.976Z,11.60
2018-12-02T04:29:26.056Z,11.60
2018-12-02T04:31:54.004Z,11.60
2018-12-02T04:34:21.925Z,11.60
2018-12-02T04:36:49.829Z,11.60
2018-12-02T04:39:17.822Z,11.70
2018-12-02T04:41:45.721Z,11.70
2018-12-02T04:44:13.644Z,11.70
2018-12-02T04:46:41.561Z,11.70
2018-12-02T04:49:09.484Z,11.70
2018-12-02T04:51:37.389Z,11.80
2018-12-02T04:54:05.314Z,11.80
2018-12-02T04:56:33.227Z,11.90
2018-12-02T04:59:01.133Z,11.90
2018-12-02T05:01:29.037Z,12.00
2018-12-02T05:03:57.002Z,11.90
2018-12-02T05:06:24.961Z,11.90
2018-12-02T05:08:52.868Z,12.00
2018-12-02T05:11:20.760Z,11.90
2018-12-02T05:13:48.713Z,12.00
2018-12-02T05:16:16.631Z,12.00
2018-12-02T05:18:44.557Z,12.00
2018-12-02T05:21:12.466Z,12.00
2018-12-02T05:23:40.357Z,12.00
2018-12-02T05:26:08.282Z,12.00
2018-12-02T05:28:36.209Z,12.10
2018-12-02T05:31:04.259Z,12.10
2018-12-02T05:33:32.209Z,12.10
2018-12-02T05:36:00.157Z,12.10
2018-12-02T05:38:28.045Z,12.10
2018-12-02T05:40:55.949Z,12.20
2018-12-02T05:43:23.884Z,12.10
2018-12-02T05:45:51.788Z,12.20
2018-12-02T05:48:19.691Z,12.20
2018-12-02T05:50:47.608Z,12.20
2018-12-02T05:53:15.551Z,12.20
2018-12-02T05:55:43.484Z,12.20
2018-12-02T05:58:11.425Z,12.30
2018-12-02T06:00:39.342Z,12.30
2018-12-02T06:03:07.326Z,12.30
2018-12-02T06:05:35.324Z,12.30
2018-12-02T06:08:03.347Z,12.30
2018-12-02T06:10:31.248Z,12.40
2018-12-02T06:12:59.214Z,12.40
2018-12-02T06:15:27.151Z,12.40
2018-12-02T06:17:55.057Z,12.40
2018-12-02T06:20:24.369Z,12.50
2018-12-02T06:22:53.199Z,12.50
2018-12-02T06:25:21.139Z,12.50
2018-12-02T06:27:49.256Z,12.50
2018-12-02T06:30:25.931Z,12.60
2018-12-02T06:32:54.931Z,12.60
2018-12-02T06:35:22.907Z,12.60
2018-12-02T06:37:51.729Z,12.60
2018-12-02T06:40:20.636Z,12.70
2018-12-02T06:42:48.938Z,12.70
2018-12-02T06:45:16.855Z,12.70
2018-12-02T06:47:44.786Z,12.70
2018-12-02T06:50:15.955Z,12.80
2018-12-02T06:52:43.900Z,12.80
2018-12-02T06:55:19.129Z,12.80
2018-12-02T06:57:49.748Z,12.80
2018-12-02T07:00:29.627Z,12.80
2018-12-02T07:03:03.558Z,12.80
2018-12-02T07:05:34.453Z,12.90
2018-12-02T07:08:02.421Z,12.80
2018-12-02T07:10:30.343Z,12.90
2018-12-02T07:12:58.269Z,12.90
2018-12-02T07:15:26.222Z,12.90
2018-12-02T07:17:55.999Z,12.90
2018-12-02T07:20:24.531Z,12.90
2018-12-02T07:22:52.721Z,12.90
2018-12-02T07:25:24.085Z,12.90
2018-12-02T07:27:52.014Z,12.90
2018-12-02T07:30:24.883Z,12.90
2018-12-02T07:32:47.875Z,12.90
2018-12-02T07:35:15.819Z,12.90
2018-12-02T07:37:46.904Z,12.90
2018-12-02T07:40:19.983Z,12.80
2018-12-02T07:42:47.875Z,12.90
2018-12-02T07:45:15.799Z,12.90
2018-12-02T07:47:46.579Z,12.90
2018-12-02T07:50:14.501Z,12.90
2018-12-02T07:52:42.414Z,12.90
2018-12-02T07:55:10.368Z,13.00
2018-12-02T07:57:38.268Z,13.00
2018-12-02T08:00:10.452Z,13.00
2018-12-02T08:02:38.347Z,13.00
2018-12-02T08:05:07.761Z,13.00
2018-12-02T08:07:35.696Z,13.10
2018-12-02T08:10:04.883Z,13.10
2018-12-02T08:12:32.799Z,13.10
2018-12-02T08:15:00.733Z,13.10
2018-12-02T08:17:28.671Z,13.10
2018-12-02T08:19:56.585Z,13.10
2018-12-02T08:22:24.465Z,13.10
2018-12-02T08:24:52.445Z,13.10
2018-12-02T08:27:20.360Z,13.10
2018-12-02T08:29:48.371Z,13.20
2018-12-02T08:32:16.260Z,13.20
2018-12-02T08:34:44.239Z,13.30
2018-12-02T08:37:12.135Z,13.20
2018-12-02T08:39:40.078Z,13.30
2018-12-02T08:42:08.056Z,13.30
2018-12-02T08:44:35.963Z,13.30
2018-12-02T08:47:03.882Z,13.30
2018-12-02T08:49:31.879Z,13.40
2018-12-02T08:51:59.772Z,13.40
2018-12-02T08:54:27.681Z,13.40
2018-12-02T08:56:55.605Z,13.40
2018-12-02T08:59:23.515Z,13.40
2018-12-02T09:01:51.432Z,13.40
2018-12-02T09:04:19.377Z,13.40
2018-12-02T09:06:47.294Z,13.40
2018-12-02T09:09:15.283Z,13.40
2018-12-02T09:11:43.227Z,13.40
2018-12-02T09:14:11.208Z,13.40
2018-12-02T09:16:39.152Z,13.50
2018-12-02T09:19:07.226Z,13.50
2018-12-02T09:21:35.141Z,13.50
2018-12-02T09:24:03.049Z,13.50
2018-12-02T09:26:30.965Z,13.50
2018-12-02T09:28:58.937Z,13.60
2018-12-02T09:31:26.852Z,13.60
2018-12-02T09:33:54.767Z,13.60
2018-12-02T09:36:22.717Z,13.60
2018-12-02T09:38:50.657Z,13.70
2018-12-02T09:41:18.565Z,13.70
2018-12-02T09:43:46.489Z,13.70
2018-12-02T09:46:14.423Z,13.80
2018-12-02T09:48:42.380Z,13.70
2018-12-02T09:51:10.321Z,13.70
2018-12-02T09:53:38.241Z,13.70
2018-12-02T09:56:06.617Z,13.70
2018-12-02T09:58:34.546Z,13.70
2018-12-02T10:01:02.488Z,13.80
2018-12-02T10:03:30.448Z,13.80
2018-12-02T10:05:58.368Z,13.80
2018-12-02T10:08:26.374Z,13.90
2018-12-02T10:10:54.395Z,13.90
2018-12-02T10:13:23.212Z,13.90
2018-12-02T10:15:51.167Z,14.00
2018-12-02T10:18:19.105Z,13.90
2018-12-02T10:20:50.256Z,13.90
2018-12-02T10:23:18.154Z,14.00
2018-12-02T10:25:46.096Z,14.00
2018-12-02T10:28:14.028Z,14.10
2018-12-02T10:30:42.008Z,14.10
2018-12-02T10:33:10.086Z,14.20
2018-12-02T10:35:38.008Z,14.20
2018-12-02T10:38:07.081Z,14.10
2018-12-02T10:40:35.358Z,14.20
2018-12-02T10:43:03.371Z,14.20
2018-12-02T10:45:31.362Z,14.30
2018-12-02T10:48:00.327Z,14.30
2018-12-02T10:50:30.655Z,14.30
2018-12-02T10:52:59.827Z,14.30
2018-12-02T10:55:35.798Z,14.30
2018-12-02T10:58:03.731Z,14.30
2018-12-02T11:00:50.982Z,14.20
2018-12-02T11:03:18.950Z,14.30
2018-12-02T11:05:46.917Z,14.20
2018-12-02T11:08:14.844Z,14.20
2018-12-02T11:10:42.788Z,14.30
2018-12-02T11:13:10.742Z,14.20
2018-12-02T11:15:39.178Z,14.20
2018-12-02T11:18:08.685Z,14.20
2018-12-02T11:20:36.708Z,14.20
2018-12-02T11:23:05.106Z,14.20
2018-12-02T11:25:33.032Z,14.20
2018-12-02T11:28:00.994Z,14.20
2018-12-02T11:30:29.023Z,14.10
2018-12-02T11:32:56.943Z,14.10
2018-12-02T11:35:24.911Z,14.10
2018-12-02T11:37:52.877Z,14.10
2018-12-02T11:40:21.554Z,14.20
2018-12-02T11:42:50.788Z,14.20
2018-12-02T11:45:18.738Z,14.20
2018-12-02T11:47:48.874Z,14.30
2018-12-02T11:50:17.781Z,14.30
2018-12-02T11:52:45.732Z,14.30
2018-12-02T11:55:15.894Z,14.30
2018-12-02T11:57:44.141Z,14.20
2018-12-02T12:00:34.895Z,14.30
2018-12-02T12:03:03.172Z,14.20
2018-12-02T12:05:31.450Z,14.20
2018-12-02T12:08:02.526Z,14.20
2018-12-02T12:10:34.033Z,14.20
2018-12-02T12:13:02.675Z,14.20
2018-12-02T12:15:31.748Z,14.20
2018-12-02T12:18:00.684Z,14.20
2018-12-02T12:20:36.779Z,14.20
2018-12-02T12:23:05.840Z,14.10
2018-12-02T12:25:34.521Z,14.10
2018-12-02T12:28:03.235Z,14.10
2018-12-02T12:30:32.583Z,14.10
2018-12-02T12:33:01.242Z,14.10
2018-12-02T12:35:29.829Z,14.10
2018-12-02T12:37:58.081Z,14.10
2018-12-02T12:40:36.610Z,14.10
2018-12-02T12:43:42.395Z,14.20
2018-12-02T12:46:10.652Z,14.30
2018-12-02T12:48:38.978Z,14.40
2018-12-02T12:51:07.548Z,14.40
2018-12-02T12:53:35.858Z,14.40
2018-12-02T12:56:04.350Z,14.40
2018-12-02T12:58:32.629Z,14.40
2018-12-02T13:01:00.952Z,14.40
2018-12-02T13:03:29.265Z,14.40
2018-12-02T13:05:57.570Z,14.40
2018-12-02T13:08:25.907Z,14.40
2018-12-02T13:10:54.201Z,14.40
2018-12-02T13:13:22.511Z,14.40
2018-12-02T13:15:50.808Z,14.40
2018-12-02T13:18:19.125Z,14.40
2018-12-02T13:20:54.245Z,14.30
2018-12-02T13:23:22.613Z,14.30
2018-12-02T13:25:50.869Z,14.40
2018-12-02T13:28:19.180Z,14.40
2018-12-02T13:30:47.563Z,14.40
2018-12-02T13:33:15.841Z,14.40
2018-12-02T13:35:44.084Z,14.40
2018-12-02T13:38:12.359Z,14.40
2018-12-02T13:40:41.560Z,14.40
2018-12-02T13:43:17.441Z,14.50
2018-12-02T13:45:46.093Z,14.50
2018-12-02T13:48:14.415Z,14.50
2018-12-02T13:50:42.831Z,14.50
2018-12-02T13:53:11.219Z,14.50
2018-12-02T13:55:39.755Z,14.50
2018-12-02T13:58:08.078Z,14.50
2018-12-02T14:00:37.660Z,14.50
2018-12-02T14:03:07.637Z,14.50
2018-12-02T14:05:37.513Z,14.50
2018-12-02T14:08:05.915Z,14.50
2018-12-02T14:10:34.189Z,14.50
2018-12-02T14:13:05.175Z,14.50
2018-12-02T14:16:16.085Z,14.50
2018-12-02T14:18:45.127Z,14.50
2018-12-02T14:21:13.432Z,14.50
2018-12-02T14:23:42.965Z,14.50
2018-12-02T14:26:18.751Z,14.50
2018-12-02T14:29:18.931Z,14.50
2018-12-02T14:31:49.334Z,14.50
2018-12-02T14:34:17.592Z,14.40
2018-12-02T14:36:45.903Z,14.40
2018-12-02T14:39:14.143Z,14.30
2018-12-02T14:41:42.471Z,14.30
2018-12-02T14:44:10.874Z,14.20
2018-12-02T14:46:39.207Z,14.20
2018-12-02T14:49:07.604Z,14.10
2018-12-02T14:51:35.894Z,14.10
2018-12-02T14:54:04.171Z,14.10
2018-12-02T14:56:32.468Z,14.00
2018-12-02T14:59:00.704Z,14.00
2018-12-02T15:01:28.992Z,14.00
2018-12-02T15:03:57.302Z,14.00
2018-12-02T15:06:25.554Z,14.00
2018-12-02T15:08:53.920Z,14.00
2018-12-02T15:11:22.212Z,14.00
2018-12-02T15:13:50.498Z,14.00
2018-12-02T15:16:18.769Z,14.00
2018-12-02T15:18:47.130Z,14.00
2018-12-02T15:21:15.400Z,14.00
2018-12-02T15:23:43.672Z,14.10
2018-12-02T15:26:11.981Z,14.10
2018-12-02T15:28:40.264Z,14.10
2018-12-02T15:31:08.558Z,14.10
2018-12-02T15:33:37.760Z,14.10
2018-12-02T15:36:05.397Z,14.10
2018-12-02T15:38:33.724Z,14.10
2018-12-02T15:41:02.069Z,14.10
2018-12-02T15:43:30.380Z,14.00
2018-12-02T15:45:58.682Z,14.00
2018-12-02T15:48:27.004Z,14.00
2018-12-02T15:50:55.284Z,14.00
2018-12-02T15:53:23.556Z,14.00
2018-12-02T15:55:51.907Z,14.00
2018-12-02T15:58:20.415Z,14.00
2018-12-02T16:00:48.753Z,13.90
2018-12-02T16:03:17.065Z,13.90
2018-12-02T16:05:45.341Z,13.80
2018-12-02T16:08:13.634Z,13.80
2018-12-02T16:10:42.051Z,13.70
2018-12-02T16:13:11.393Z,13.70
2018-12-02T16:15:39.673Z,13.60
2018-12-02T16:18:09.385Z,13.60
2018-12-02T16:20:45.441Z,13.50
2018-12-02T16:23:15.167Z,13.50
2018-12-02T16:25:43.427Z,13.50
2018-12-02T16:28:11.729Z,13.50
2018-12-02T16:30:40.028Z,13.40
2018-12-02T16:33:08.329Z,13.40
2018-12-02T16:35:36.610Z,13.50
2018-12-02T16:38:05.807Z,13.50
2018-12-02T16:40:34.149Z,13.50
2018-12-02T16:43:02.450Z,13.50
2018-12-02T16:45:31.304Z,13.50
2018-12-02T16:47:59.136Z,13.50
2018-12-02T16:50:38.115Z,13.60
2018-12-02T16:53:23.188Z,13.60
2018-12-02T16:56:10.803Z,13.60
2018-12-02T16:59:13.887Z,13.60
2018-12-02T17:01:44.735Z,13.60
2018-12-02T17:04:13.060Z,13.60
2018-12-02T17:06:41.412Z,13.60
2018-12-02T17:09:11.452Z,13.60
2018-12-02T17:11:40.198Z,13.60
2018-12-02T17:14:08.592Z,13.60
2018-12-02T17:16:36.878Z,13.60
2018-12-02T17:19:05.920Z,13.60
2018-12-02T17:21:34.213Z,13.60
2018-12-02T17:24:02.497Z,13.60
2018-12-02T17:26:30.780Z,13.60
2018-12-02T17:29:00.324Z,13.60
2018-12-02T17:31:32.650Z,13.50
2018-12-02T17:34:00.945Z,13.50
2018-12-02T17:36:29.254Z,13.50
2018-12-02T17:39:08.729Z,13.50
2018-12-02T17:41:37.033Z,13.50
2018-12-02T17:44:05.756Z,13.50
2018-12-02T17:46:34.035Z,13.60
2018-12-02T17:49:02.310Z,13.60
2018-12-02T17:51:30.564Z,13.60
2018-12-02T17:53:58.882Z,13.60
2018-12-02T17:56:27.140Z,13.60
2018-12-02T17:58:55.400Z,13.70
2018-12-02T18:01:23.660Z,13.60
2018-12-02T18:03:52.180Z,13.70
2018-12-02T18:06:20.458Z,13.70
2018-12-02T18:08:48.783Z,13.70
2018-12-02T18:11:17.106Z,13.70
2018-12-02T18:13:45.541Z,13.70
2018-12-02T18:16:13.846Z,13.70
2018-12-02T18:18:42.145Z,13.70
2018-12-02T18:21:10.447Z,13.70
2018-12-02T18:23:38.777Z,13.70
2018-12-02T18:26:07.158Z,13.70
2018-12-02T18:28:35.512Z,13.60
2018-12-02T18:31:03.813Z,13.60
2018-12-02T18:33:32.100Z,13.60
2018-12-02T18:36:11.023Z,13.50
2018-12-02T18:38:41.015Z,13.50
2018-12-02T18:41:17.125Z,13.40
2018-12-02T18:43:45.403Z,13.40
2018-12-02T18:46:14.643Z,13.40
2018-12-02T18:48:42.919Z,13.40
2018-12-02T18:51:11.242Z,13.40
2018-12-02T18:53:40.019Z,13.40
2018-12-02T18:56:08.319Z,13.40
2018-12-02T18:58:36.626Z,13.40
2018-12-02T19:01:05.075Z,13.40
2018-12-02T19:03:33.364Z,13.40
2018-12-02T19:06:01.669Z,13.40
2018-12-02T19:08:30.008Z,13.40
2018-12-02T19:10:59.229Z,13.40
2018-12-02T19:13:27.524Z,13.40
2018-12-02T19:15:55.850Z,13.40
2018-12-02T19:18:24.368Z,13.40
2018-12-02T19:20:54.403Z,13.30
2018-12-02T19:23:24.946Z,13.40
2018-12-02T19:25:53.217Z,13.30
2018-12-02T19:28:21.530Z,13.40
2018-12-02T19:30:49.849Z,13.30
2018-12-02T19:33:20.216Z,13.30
2018-12-02T19:35:49.132Z,13.30
2018-12-02T19:38:21.915Z,13.30
2018-12-02T19:40:50.311Z,13.30
2018-12-02T19:43:18.679Z,13.30
2018-12-02T19:45:50.807Z,13.30
2018-12-02T19:48:19.098Z,13.30
2018-12-02T19:50:47.589Z,13.30
2018-12-02T19:53:15.939Z,13.30
2018-12-02T19:55:44.202Z,13.30
2018-12-02T19:58:13.308Z,13.30
2018-12-02T20:00:50.720Z,13.30
2018-12-02T20:03:14.125Z,13.40
2018-12-02T20:05:42.935Z,13.40
2018-12-02T20:08:14.898Z,13.40
2018-12-02T20:10:46.865Z,13.40
2018-12-02T20:13:16.400Z,13.40
2018-12-02T20:16:02.606Z,13.40
2018-12-02T20:18:31.023Z,13.40
2018-12-02T20:21:02.400Z,13.40
2018-12-02T20:23:48.585Z,13.40
2018-12-02T20:26:17.050Z,13.40
2018-12-02T20:28:50.199Z,13.40
2018-12-02T20:31:28.861Z,13.40
2018-12-02T20:33:57.227Z,13.30
2018-12-02T20:36:25.592Z,13.40
2018-12-02T20:38:54.045Z,13.30
2018-12-02T20:41:22.399Z,13.40
2018-12-02T20:43:50.952Z,13.40
2018-12-02T20:46:19.211Z,13.40
2018-12-02T20:48:47.513Z,13.40
2018-12-02T20:51:15.825Z,13.40
2018-12-02T20:53:44.294Z,13.40
2018-12-02T20:56:12.621Z,13.40
2018-12-02T20:58:42.843Z,13.40
2018-12-02T21:01:18.929Z,13.40
2018-12-02T21:03:49.570Z,13.40
2018-12-02T21:06:20.164Z,13.40
2018-12-02T21:08:51.538Z,13.40
2018-12-02T21:11:24.920Z,13.40
2018-12-02T21:13:53.226Z,13.40
2018-12-02T21:16:21.569Z,13.40
2018-12-02T21:18:49.882Z,13.40
2018-12-02T21:21:20.754Z,13.40
2018-12-02T21:23:49.059Z,13.40
2018-12-02T21:26:17.422Z,13.40
2018-12-02T21:28:45.749Z,13.40
2018-12-02T21:31:14.101Z,13.40
2018-12-02T21:33:42.380Z,13.50
2018-12-02T21:36:10.697Z,13.50
2018-12-02T21:38:39.029Z,13.50
2018-12-02T21:43:22.957Z,13.50
2018-12-02T21:45:50.598Z,13.60
2018-12-02T21:48:19.507Z,13.60
2018-12-02T21:50:49.385Z,13.60
2018-12-02T21:53:17.049Z,13.60
2018-12-02T21:55:44.692Z,13.50
2018-12-02T21:58:12.386Z,13.50
2018-12-02T22:00:43.892Z,13.50
2018-12-02T22:03:12.281Z,13.50
2018-12-02T22:05:39.913Z,13.50
2018-12-02T22:08:07.581Z,13.50
2018-12-02T22:10:35.186Z,13.50
2018-12-02T22:13:02.855Z,13.50
2018-12-02T22:15:30.642Z,13.50
2018-12-02T22:17:58.257Z,13.50
2018-12-02T22:20:25.930Z,13.50
2018-12-02T22:22:53.723Z,13.50
2018-12-02T22:25:22.437Z,13.50
2018-12-02T22:27:52.277Z,13.50
2018-12-02T22:30:21.169Z,13.50
2018-12-02T22:32:48.885Z,13.50
2018-12-02T22:35:16.657Z,13.50
2018-12-02T22:37:45.057Z,13.50
2018-12-02T22:40:14.955Z,13.50
2018-12-02T22:42:42.537Z,13.50
2018-12-02T22:45:14.124Z,13.50
2018-12-02T22:47:41.769Z,13.50
2018-12-02T22:50:11.479Z,13.50
2018-12-02T22:52:39.075Z,13.60
2018-12-02T22:55:08.273Z,13.50
2018-12-02T22:57:36.241Z,13.50
2018-12-02T23:00:18.209Z,13.50
2018-12-02T23:02:55.137Z,13.50
2018-12-02T23:05:22.830Z,13.50
2018-12-02T23:07:50.423Z,13.40
2018-12-02T23:10:18.103Z,13.40
2018-12-02T23:12:45.783Z,13.50
2018-12-02T23:15:13.529Z,13.50
2018-12-02T23:17:41.221Z,13.50
2018-12-02T23:20:10.387Z,13.50
2018-12-02T23:22:37.986Z,13.50
2018-12-02T23:25:07.801Z,13.50
2018-12-02T23:27:35.459Z,13.50
2018-12-02T23:30:03.269Z,13.50
2018-12-02T23:32:30.858Z,13.60
2018-12-02T23:34:58.476Z,13.50
2018-12-02T23:37:26.076Z,13.50
2018-12-02T23:39:53.687Z,13.50
2018-12-02T23:42:21.295Z,13.50
2018-12-02T23:44:48.939Z,13.40
2018-12-02T23:47:16.575Z,13.50
2018-12-02T23:49:44.169Z,13.40
2018-12-02T23:52:11.760Z,13.40
2018-12-02T23:54:39.419Z,13.50
2018-12-02T23:57:07.110Z,13.50
2018-12-02T23:59:34.737Z,13.50
